createdAt,value
2019-05-23T00:00:20.257Z,1008.65
2019-05-23T00:01:20.247Z,1008.63
2019-05-23T00:02:20.244Z,1008.67
2019-05-23T00:03:20.228Z,1008.67
2019-05-23T00:04:20.222Z,1008.65
2019-05-23T00:05:20.208Z,1008.65
2019-05-23T00:06:20.194Z,1008.65
2019-05-23T00:07:25.198Z,1008.59
2019-05-23T00:08:20.169Z,1008.60
2019-05-23T00:09:20.170Z,1008.57
2019-05-23T00:10:20.143Z,1008.58
2019-05-23T00:11:20.133Z,1008.58
2019-05-23T00:12:20.125Z,1008.57
2019-05-23T00:13:20.111Z,1008.59
2019-05-23T00:14:20.119Z,1008.57
2019-05-23T00:15:20.087Z,1008.57
2019-05-23T00:16:20.078Z,1008.57
2019-05-23T00:17:20.069Z,1008.52
2019-05-23T00:18:25.079Z,1008.49
2019-05-23T00:19:20.044Z,1008.48
2019-05-23T00:20:20.047Z,1008.59
2019-05-23T00:21:20.027Z,1008.56
2019-05-23T00:22:20.018Z,1008.56
2019-05-23T00:23:20.005Z,1008.52
2019-05-23T00:24:19.992Z,1008.55
2019-05-23T00:25:19.990Z,1008.47
2019-05-23T00:26:19.988Z,1008.54
2019-05-23T00:27:19.954Z,1008.54
2019-05-23T00:28:19.944Z,1008.48
2019-05-23T00:29:24.959Z,1008.49
2019-05-23T00:30:19.935Z,1008.51
2019-05-23T00:31:19.939Z,1008.52
2019-05-23T00:32:19.904Z,1008.39
2019-05-23T00:33:19.889Z,1008.45
2019-05-23T00:34:19.877Z,1008.45
2019-05-23T00:35:19.907Z,1008.39
2019-05-23T00:36:19.873Z,1008.43
2019-05-23T00:37:19.857Z,1008.37
2019-05-23T00:38:19.837Z,1008.45
2019-05-23T00:39:19.853Z,1008.40
2019-05-23T00:40:24.852Z,1008.40
2019-05-23T00:41:19.806Z,1008.36
2019-05-23T00:42:19.794Z,1008.35
2019-05-23T00:43:19.782Z,1008.37
2019-05-23T00:44:19.766Z,1008.33
2019-05-23T00:45:19.763Z,1008.36
2019-05-23T00:46:19.744Z,1008.42
2019-05-23T00:47:19.732Z,1008.41
2019-05-23T00:48:19.722Z,1008.41
2019-05-23T00:49:19.709Z,1008.41
2019-05-23T00:50:19.718Z,1008.38
2019-05-23T00:51:24.714Z,1008.35
2019-05-23T00:52:19.676Z,1008.36
2019-05-23T00:53:19.667Z,1008.39
2019-05-23T00:54:19.654Z,1008.38
2019-05-23T00:55:19.657Z,1008.37
2019-05-23T00:56:19.675Z,1008.39
2019-05-23T00:57:19.659Z,1008.42
2019-05-23T00:58:19.679Z,1008.40
2019-05-23T00:59:27.094Z,1008.39
2019-05-23T01:00:20.597Z,1008.41
2019-05-23T01:01:19.596Z,1008.36
2019-05-23T01:02:24.589Z,1008.42
2019-05-23T01:03:19.573Z,1008.37
2019-05-23T01:04:19.542Z,1008.42
2019-05-23T01:05:19.552Z,1008.41
2019-05-23T01:06:19.534Z,1008.43
2019-05-23T01:07:19.509Z,1008.43
2019-05-23T01:08:19.497Z,1008.37
2019-05-23T01:09:19.488Z,1008.41
2019-05-23T01:10:19.478Z,1008.41
2019-05-23T01:11:19.486Z,1008.34
2019-05-23T01:12:19.491Z,1008.38
2019-05-23T01:13:24.473Z,1008.33
2019-05-23T01:14:19.430Z,1008.35
2019-05-23T01:15:19.423Z,1008.39
2019-05-23T01:16:19.426Z,1008.39
2019-05-23T01:17:19.400Z,1008.40
2019-05-23T01:18:19.391Z,1008.42
2019-05-23T01:19:19.381Z,1008.42
2019-05-23T01:20:19.362Z,1008.32
2019-05-23T01:21:19.363Z,1008.43
2019-05-23T01:22:19.343Z,1008.35
2019-05-23T01:23:19.332Z,1008.38
2019-05-23T01:24:24.345Z,1008.37
2019-05-23T01:25:19.308Z,1008.42
2019-05-23T01:26:19.306Z,1008.37
2019-05-23T01:27:19.290Z,1008.35
2019-05-23T01:28:19.285Z,1008.29
2019-05-23T01:29:19.279Z,1008.37
2019-05-23T01:30:19.259Z,1008.38
2019-05-23T01:31:19.278Z,1008.36
2019-05-23T01:32:19.229Z,1008.37
2019-05-23T01:33:19.221Z,1008.41
2019-05-23T01:34:19.209Z,1008.36
2019-05-23T01:35:24.224Z,1008.31
2019-05-23T01:36:19.197Z,1008.40
2019-05-23T01:37:19.175Z,1008.38
2019-05-23T01:38:19.168Z,1008.35
2019-05-23T01:39:19.225Z,1008.35
2019-05-23T01:40:19.155Z,1008.35
2019-05-23T01:41:19.160Z,1008.29
2019-05-23T01:42:19.121Z,1008.36
2019-05-23T01:43:19.107Z,1008.37
2019-05-23T01:44:19.103Z,1008.40
2019-05-23T01:45:19.121Z,1008.30
2019-05-23T01:46:24.139Z,1008.30
2019-05-23T01:47:19.068Z,1008.34
2019-05-23T01:48:19.052Z,1008.37
2019-05-23T01:49:19.059Z,1008.30
2019-05-23T01:50:19.062Z,1008.30
2019-05-23T01:51:19.040Z,1008.29
2019-05-23T01:52:19.012Z,1008.30
2019-05-23T01:53:19.003Z,1008.35
2019-05-23T01:54:18.984Z,1008.31
2019-05-23T01:55:18.976Z,1008.40
2019-05-23T01:56:18.966Z,1008.32
2019-05-23T01:57:24.021Z,1008.32
2019-05-23T01:58:18.990Z,1008.33
2019-05-23T01:59:18.931Z,1008.30
2019-05-23T02:00:18.928Z,1008.34
2019-05-23T02:01:18.919Z,1008.30
2019-05-23T02:02:18.976Z,1008.29
2019-05-23T02:03:18.886Z,1008.38
2019-05-23T02:04:18.918Z,1008.36
2019-05-23T02:05:18.864Z,1008.30
2019-05-23T02:06:18.914Z,1008.35
2019-05-23T02:07:18.857Z,1008.36
2019-05-23T02:08:23.895Z,1008.29
2019-05-23T02:09:18.878Z,1008.35
2019-05-23T02:10:18.807Z,1008.36
2019-05-23T02:11:18.797Z,1008.38
2019-05-23T02:12:18.799Z,1008.35
2019-05-23T02:13:18.776Z,1008.37
2019-05-23T02:14:18.828Z,1008.37
2019-05-23T02:15:18.757Z,1008.29
2019-05-23T02:16:18.743Z,1008.32
2019-05-23T02:17:18.753Z,1008.29
2019-05-23T02:18:18.724Z,1008.34
2019-05-23T02:19:23.749Z,1008.34
2019-05-23T02:20:18.706Z,1008.37
2019-05-23T02:21:18.683Z,1008.33
2019-05-23T02:22:18.682Z,1008.35
2019-05-23T02:23:18.663Z,1008.27
2019-05-23T02:24:18.652Z,1008.38
2019-05-23T02:25:18.640Z,1008.32
2019-05-23T02:26:18.631Z,1008.28
2019-05-23T02:27:18.635Z,1008.34
2019-05-23T02:28:18.616Z,1008.28
2019-05-23T02:29:18.595Z,1008.26
2019-05-23T02:30:34.281Z,1008.29
2019-05-23T02:31:19.573Z,1008.30
2019-05-23T02:32:18.575Z,1008.26
2019-05-23T02:33:18.553Z,1008.21
2019-05-23T02:34:18.541Z,1008.23
2019-05-23T02:35:18.531Z,1008.23
2019-05-23T02:36:18.518Z,1008.23
2019-05-23T02:37:18.552Z,1008.24
2019-05-23T02:38:18.513Z,1008.30
2019-05-23T02:39:18.491Z,1008.25
2019-05-23T02:40:18.544Z,1008.26
2019-05-23T02:41:23.483Z,1008.27
2019-05-23T02:42:18.462Z,1008.31
2019-05-23T02:43:18.442Z,1008.30
2019-05-23T02:44:18.430Z,1008.34
2019-05-23T02:45:18.454Z,1008.29
2019-05-23T02:46:18.430Z,1008.25
2019-05-23T02:47:18.405Z,1008.33
2019-05-23T02:48:18.383Z,1008.32
2019-05-23T02:49:18.383Z,1008.33
2019-05-23T02:50:18.391Z,1008.29
2019-05-23T02:51:18.352Z,1008.28
2019-05-23T02:52:23.390Z,1008.30
2019-05-23T02:53:18.325Z,1008.28
2019-05-23T02:54:18.325Z,1008.30
2019-05-23T02:55:18.306Z,1008.37
2019-05-23T02:56:18.300Z,1008.31
2019-05-23T02:57:18.304Z,1008.36
2019-05-23T02:58:18.331Z,1008.28
2019-05-23T02:59:18.286Z,1008.28
2019-05-23T03:00:18.254Z,1008.33
2019-05-23T03:01:18.243Z,1008.32
2019-05-23T03:02:18.235Z,1008.32
2019-05-23T03:03:23.250Z,1008.26
2019-05-23T03:04:18.223Z,1008.27
2019-05-23T03:05:18.202Z,1008.23
2019-05-23T03:06:18.206Z,1008.24
2019-05-23T03:07:18.175Z,1008.22
2019-05-23T03:08:18.176Z,1008.18
2019-05-23T03:09:18.176Z,1008.27
2019-05-23T03:10:18.156Z,1008.20
2019-05-23T03:11:18.128Z,1008.22
2019-05-23T03:12:18.125Z,1008.19
2019-05-23T03:13:18.120Z,1008.17
2019-05-23T03:14:23.123Z,1008.16
2019-05-23T03:15:18.096Z,1008.23
2019-05-23T03:16:18.086Z,1008.24
2019-05-23T03:17:18.068Z,1008.21
2019-05-23T03:18:18.079Z,1008.18
2019-05-23T03:19:18.087Z,1008.26
2019-05-23T03:20:18.029Z,1008.20
2019-05-23T03:21:18.018Z,1008.22
2019-05-23T03:22:18.036Z,1008.18
2019-05-23T03:23:18.010Z,1008.22
2019-05-23T03:24:17.997Z,1008.24
2019-05-23T03:25:23.024Z,1008.19
2019-05-23T03:26:17.998Z,1008.20
2019-05-23T03:27:17.968Z,1008.20
2019-05-23T03:28:17.955Z,1008.15
2019-05-23T03:29:17.932Z,1008.19
2019-05-23T03:30:17.923Z,1008.14
2019-05-23T03:31:30.902Z,1008.16
2019-05-23T03:32:18.915Z,1008.21
2019-05-23T03:33:17.907Z,1008.23
2019-05-23T03:34:17.891Z,1008.18
2019-05-23T03:35:17.869Z,1008.22
2019-05-23T03:36:22.893Z,1008.22
2019-05-23T03:37:17.845Z,1008.26
2019-05-23T03:38:17.850Z,1008.24
2019-05-23T03:39:17.816Z,1008.22
2019-05-23T03:40:17.854Z,1008.27
2019-05-23T03:41:17.809Z,1008.27
2019-05-23T03:42:17.813Z,1008.21
2019-05-23T03:43:17.828Z,1008.27
2019-05-23T03:44:17.770Z,1008.29
2019-05-23T03:45:17.756Z,1008.30
2019-05-23T03:46:17.741Z,1008.21
2019-05-23T03:47:22.752Z,1008.28
2019-05-23T03:48:17.727Z,1008.27
2019-05-23T03:49:17.724Z,1008.20
2019-05-23T03:50:17.698Z,1008.26
2019-05-23T03:51:17.686Z,1008.21
2019-05-23T03:52:17.675Z,1008.26
2019-05-23T03:53:17.662Z,1008.25
2019-05-23T03:54:17.673Z,1008.25
2019-05-23T03:55:17.667Z,1008.26
2019-05-23T03:56:17.627Z,1008.26
2019-05-23T03:57:17.638Z,1008.25
2019-05-23T03:58:22.628Z,1008.29
2019-05-23T03:59:17.607Z,1008.30
2019-05-23T04:00:17.616Z,1008.34
2019-05-23T04:01:17.591Z,1008.25
2019-05-23T04:02:17.569Z,1008.26
2019-05-23T04:03:17.551Z,1008.31
2019-05-23T04:04:17.549Z,1008.22
2019-05-23T04:05:17.539Z,1008.29
2019-05-23T04:06:17.542Z,1008.23
2019-05-23T04:07:17.519Z,1008.20
2019-05-23T04:08:17.497Z,1008.25
2019-05-23T04:09:22.515Z,1008.28
2019-05-23T04:10:17.483Z,1008.27
2019-05-23T04:11:17.488Z,1008.31
2019-05-23T04:12:17.482Z,1008.30
2019-05-23T04:13:17.444Z,1008.28
2019-05-23T04:14:17.452Z,1008.34
2019-05-23T04:15:17.440Z,1008.29
2019-05-23T04:16:17.413Z,1008.31
2019-05-23T04:17:17.409Z,1008.30
2019-05-23T04:18:17.421Z,1008.31
2019-05-23T04:19:17.395Z,1008.23
2019-05-23T04:20:22.385Z,1008.28
2019-05-23T04:21:17.355Z,1008.30
2019-05-23T04:22:17.340Z,1008.26
2019-05-23T04:23:17.331Z,1008.24
2019-05-23T04:24:17.335Z,1008.30
2019-05-23T04:25:17.312Z,1008.29
2019-05-23T04:26:17.297Z,1008.26
2019-05-23T04:27:17.302Z,1008.26
2019-05-23T04:28:17.280Z,1008.26
2019-05-23T04:29:17.282Z,1008.22
2019-05-23T04:30:17.251Z,1008.26
2019-05-23T04:31:22.311Z,1008.27
2019-05-23T04:32:17.230Z,1008.29
2019-05-23T04:33:17.215Z,1008.24
2019-05-23T04:34:17.204Z,1008.21
2019-05-23T04:35:17.213Z,1008.31
2019-05-23T04:36:17.184Z,1008.32
2019-05-23T04:37:17.172Z,1008.31
2019-05-23T04:38:17.164Z,1008.33
2019-05-23T04:39:17.177Z,1008.30
2019-05-23T04:40:17.170Z,1008.33
2019-05-23T04:41:17.135Z,1008.33
2019-05-23T04:42:22.145Z,1008.27
2019-05-23T04:43:17.120Z,1008.19
2019-05-23T04:44:17.125Z,1008.23
2019-05-23T04:45:17.105Z,1008.28
2019-05-23T04:46:17.109Z,1008.26
2019-05-23T04:47:17.064Z,1008.23
2019-05-23T04:48:17.050Z,1008.29
2019-05-23T04:49:17.045Z,1008.34
2019-05-23T04:50:17.038Z,1008.30
2019-05-23T04:51:17.029Z,1008.30
2019-05-23T04:52:17.025Z,1008.30
2019-05-23T04:53:22.018Z,1008.29
2019-05-23T04:54:16.991Z,1008.28
2019-05-23T04:55:17.010Z,1008.29
2019-05-23T04:56:16.981Z,1008.33
2019-05-23T04:57:16.960Z,1008.34
2019-05-23T04:58:16.948Z,1008.40
2019-05-23T04:59:16.929Z,1008.32
2019-05-23T05:00:16.944Z,1008.38
2019-05-23T05:01:16.925Z,1008.39
2019-05-23T05:02:26.434Z,1008.34
2019-05-23T05:03:18.837Z,1008.32
2019-05-23T05:04:21.939Z,1008.37
2019-05-23T05:05:16.915Z,1008.37
2019-05-23T05:06:16.876Z,1008.29
2019-05-23T05:07:16.853Z,1008.36
2019-05-23T05:08:16.902Z,1008.34
2019-05-23T05:09:16.832Z,1008.42
2019-05-23T05:10:16.851Z,1008.37
2019-05-23T05:11:16.795Z,1008.44
2019-05-23T05:12:16.784Z,1008.40
2019-05-23T05:13:16.775Z,1008.37
2019-05-23T05:14:16.768Z,1008.40
2019-05-23T05:15:21.794Z,1008.37
2019-05-23T05:16:16.785Z,1008.37
2019-05-23T05:17:16.724Z,1008.39
2019-05-23T05:18:16.728Z,1008.39
2019-05-23T05:19:16.792Z,1008.41
2019-05-23T05:20:16.699Z,1008.41
2019-05-23T05:21:16.699Z,1008.34
2019-05-23T05:22:16.668Z,1008.34
2019-05-23T05:23:16.658Z,1008.39
2019-05-23T05:24:16.656Z,1008.40
2019-05-23T05:25:16.638Z,1008.38
2019-05-23T05:26:21.666Z,1008.41
2019-05-23T05:27:16.622Z,1008.50
2019-05-23T05:28:16.610Z,1008.43
2019-05-23T05:29:16.626Z,1008.50
2019-05-23T05:30:16.623Z,1008.46
2019-05-23T05:31:16.607Z,1008.48
2019-05-23T05:32:16.605Z,1008.49
2019-05-23T05:33:16.548Z,1008.44
2019-05-23T05:34:16.538Z,1008.46
2019-05-23T05:35:16.562Z,1008.39
2019-05-23T05:36:16.558Z,1008.47
2019-05-23T05:37:21.549Z,1008.47
2019-05-23T05:38:16.518Z,1008.42
2019-05-23T05:39:16.480Z,1008.46
2019-05-23T05:40:16.468Z,1008.47
2019-05-23T05:41:16.476Z,1008.48
2019-05-23T05:42:16.450Z,1008.46
2019-05-23T05:43:16.445Z,1008.50
2019-05-23T05:44:16.453Z,1008.53
2019-05-23T05:45:16.414Z,1008.54
2019-05-23T05:46:16.413Z,1008.51
2019-05-23T05:47:16.396Z,1008.54
2019-05-23T05:48:21.405Z,1008.48
2019-05-23T05:49:16.411Z,1008.50
2019-05-23T05:50:16.370Z,1008.51
2019-05-23T05:51:16.356Z,1008.40
2019-05-23T05:52:16.339Z,1008.44
2019-05-23T05:53:16.325Z,1008.43
2019-05-23T05:54:16.318Z,1008.44
2019-05-23T05:55:16.301Z,1008.44
2019-05-23T05:56:16.320Z,1008.49
2019-05-23T05:57:16.279Z,1008.50
2019-05-23T05:58:16.334Z,1008.49
2019-05-23T05:59:21.280Z,1008.51
2019-05-23T06:00:16.246Z,1008.48
2019-05-23T06:01:31.150Z,1008.48
2019-05-23T06:02:17.229Z,1008.52
2019-05-23T06:03:16.224Z,1008.51
2019-05-23T06:04:16.205Z,1008.54
2019-05-23T06:05:16.217Z,1008.60
2019-05-23T06:06:16.225Z,1008.51
2019-05-23T06:07:16.218Z,1008.58
2019-05-23T06:08:16.159Z,1008.56
2019-05-23T06:09:16.149Z,1008.57
2019-05-23T06:10:21.294Z,1008.58
2019-05-23T06:11:16.140Z,1008.62
2019-05-23T06:12:16.121Z,1008.64
2019-05-23T06:13:16.136Z,1008.63
2019-05-23T06:14:16.103Z,1008.59
2019-05-23T06:15:16.083Z,1008.62
2019-05-23T06:16:16.083Z,1008.61
2019-05-23T06:17:16.076Z,1008.66
2019-05-23T06:18:16.061Z,1008.70
2019-05-23T06:19:16.043Z,1008.65
2019-05-23T06:20:16.035Z,1008.56
2019-05-23T06:21:21.049Z,1008.60
2019-05-23T06:22:16.006Z,1008.48
2019-05-23T06:23:15.991Z,1008.58
2019-05-23T06:24:16.062Z,1008.61
2019-05-23T06:25:16.003Z,1008.56
2019-05-23T06:26:15.985Z,1008.52
2019-05-23T06:27:15.960Z,1008.51
2019-05-23T06:28:15.972Z,1008.62
2019-05-23T06:29:15.983Z,1008.59
2019-05-23T06:30:15.916Z,1008.62
2019-05-23T06:31:15.916Z,1008.56
2019-05-23T06:32:20.945Z,1008.56
2019-05-23T06:33:23.286Z,1008.61
2019-05-23T06:34:16.870Z,1008.61
2019-05-23T06:35:15.864Z,1008.62
2019-05-23T06:36:15.861Z,1008.56
2019-05-23T06:37:15.862Z,1008.55
2019-05-23T06:38:15.831Z,1008.62
2019-05-23T06:39:15.871Z,1008.58
2019-05-23T06:40:15.804Z,1008.59
2019-05-23T06:41:15.816Z,1008.54
2019-05-23T06:42:15.786Z,1008.57
2019-05-23T06:43:20.797Z,1008.65
2019-05-23T06:44:15.768Z,1008.63
2019-05-23T06:45:15.775Z,1008.62
2019-05-23T06:46:15.756Z,1008.65
2019-05-23T06:47:15.723Z,1008.65
2019-05-23T06:48:15.825Z,1008.60
2019-05-23T06:49:15.705Z,1008.59
2019-05-23T06:50:15.700Z,1008.60
2019-05-23T06:51:15.743Z,1008.66
2019-05-23T06:52:15.697Z,1008.65
2019-05-23T06:53:15.672Z,1008.62
2019-05-23T06:54:20.692Z,1008.58
2019-05-23T06:55:15.670Z,1008.65
2019-05-23T06:56:15.694Z,1008.61
2019-05-23T06:57:15.651Z,1008.65
2019-05-23T06:58:15.608Z,1008.66
2019-05-23T06:59:15.595Z,1008.59
2019-05-23T07:00:15.588Z,1008.63
2019-05-23T07:01:15.621Z,1008.65
2019-05-23T07:02:15.569Z,1008.66
2019-05-23T07:03:15.545Z,1008.64
2019-05-23T07:04:15.548Z,1008.57
2019-05-23T07:05:20.548Z,1008.56
2019-05-23T07:06:15.517Z,1008.62
2019-05-23T07:07:15.509Z,1008.59
2019-05-23T07:08:15.531Z,1008.64
2019-05-23T07:09:15.478Z,1008.61
2019-05-23T07:10:15.488Z,1008.71
2019-05-23T07:11:15.469Z,1008.69
2019-05-23T07:12:15.453Z,1008.70
2019-05-23T07:13:15.436Z,1008.70
2019-05-23T07:14:15.462Z,1008.70
2019-05-23T07:15:15.433Z,1008.70
2019-05-23T07:16:20.446Z,1008.69
2019-05-23T07:17:15.398Z,1008.76
2019-05-23T07:18:15.377Z,1008.79
2019-05-23T07:19:15.367Z,1008.78
2019-05-23T07:20:15.360Z,1008.76
2019-05-23T07:21:15.377Z,1008.85
2019-05-23T07:22:18.549Z,1008.79
2019-05-23T07:23:15.338Z,1008.80
2019-05-23T07:24:15.311Z,1008.79
2019-05-23T07:25:15.305Z,1008.74
2019-05-23T07:26:15.303Z,1008.77
2019-05-23T07:27:20.458Z,1008.78
2019-05-23T07:28:15.375Z,1008.78
2019-05-23T07:29:15.277Z,1008.74
2019-05-23T07:30:15.279Z,1008.82
2019-05-23T07:31:15.239Z,1008.80
2019-05-23T07:32:15.253Z,1008.85
2019-05-23T07:33:15.228Z,1008.81
2019-05-23T07:34:15.201Z,1008.79
2019-05-23T07:35:15.187Z,1008.90
2019-05-23T07:36:15.176Z,1008.87
2019-05-23T07:37:15.181Z,1008.86
2019-05-23T07:38:20.251Z,1008.88
2019-05-23T07:39:15.151Z,1008.83
2019-05-23T07:40:15.148Z,1008.83
2019-05-23T07:41:15.156Z,1008.84
2019-05-23T07:42:15.119Z,1008.83
2019-05-23T07:43:15.098Z,1008.89
2019-05-23T07:44:15.104Z,1008.85
2019-05-23T07:45:15.077Z,1008.85
2019-05-23T07:46:15.073Z,1008.86
2019-05-23T07:47:15.065Z,1008.83
2019-05-23T07:48:15.040Z,1008.83
2019-05-23T07:49:20.051Z,1008.83
2019-05-23T07:50:15.035Z,1008.76
2019-05-23T07:51:15.019Z,1008.80
2019-05-23T07:52:15.031Z,1008.83
2019-05-23T07:53:14.993Z,1008.83
2019-05-23T07:54:14.983Z,1008.80
2019-05-23T07:55:14.966Z,1008.84
2019-05-23T07:56:15.016Z,1008.81
2019-05-23T07:57:14.970Z,1008.82
2019-05-23T07:58:14.970Z,1008.82
2019-05-23T07:59:14.922Z,1008.84
2019-05-23T08:00:19.946Z,1008.82
2019-05-23T08:01:15.004Z,1008.83
2019-05-23T08:02:14.888Z,1008.84
2019-05-23T08:03:14.904Z,1008.83
2019-05-23T08:04:21.784Z,1008.83
2019-05-23T08:05:15.860Z,1008.77
2019-05-23T08:06:14.897Z,1008.82
2019-05-23T08:07:14.837Z,1008.85
2019-05-23T08:08:14.837Z,1008.76
2019-05-23T08:09:14.834Z,1008.76
2019-05-23T08:10:30.967Z,1008.82
2019-05-23T08:11:20.807Z,1008.78
2019-05-23T08:12:14.800Z,1008.73
2019-05-23T08:13:14.774Z,1008.75
2019-05-23T08:14:14.786Z,1008.75
2019-05-23T08:15:14.745Z,1008.71
2019-05-23T08:16:14.740Z,1008.73
2019-05-23T08:17:14.718Z,1008.65
2019-05-23T08:18:14.753Z,1008.61
2019-05-23T08:19:19.365Z,1008.68
2019-05-23T08:20:15.709Z,1008.69
2019-05-23T08:21:14.684Z,1008.64
2019-05-23T08:22:19.686Z,1008.64
2019-05-23T08:23:14.666Z,1008.64
2019-05-23T08:24:14.644Z,1008.62
2019-05-23T08:25:14.642Z,1008.62
2019-05-23T08:26:14.635Z,1008.60
2019-05-23T08:27:14.613Z,1008.66
2019-05-23T08:28:14.613Z,1008.63
2019-05-23T08:29:27.093Z,1008.63
2019-05-23T08:30:15.583Z,1008.67
2019-05-23T08:31:14.605Z,1008.66
2019-05-23T08:32:14.560Z,1008.64
2019-05-23T08:33:19.573Z,1008.64
2019-05-23T08:34:14.532Z,1008.64
2019-05-23T08:35:17.819Z,1008.65
2019-05-23T08:36:14.521Z,1008.65
2019-05-23T08:37:14.531Z,1008.62
2019-05-23T08:38:14.516Z,1008.67
2019-05-23T08:39:14.484Z,1008.65
2019-05-23T08:40:14.472Z,1008.61
2019-05-23T08:41:14.487Z,1008.61
2019-05-23T08:42:14.481Z,1008.67
2019-05-23T08:43:14.639Z,1008.68
2019-05-23T08:44:19.456Z,1008.68
2019-05-23T08:45:14.417Z,1008.71
2019-05-23T08:46:14.434Z,1008.65
2019-05-23T08:47:14.393Z,1008.53
2019-05-23T08:48:14.383Z,1008.60
2019-05-23T08:49:14.374Z,1008.56
2019-05-23T08:50:14.353Z,1008.50
2019-05-23T08:51:14.351Z,1008.56
2019-05-23T08:52:14.331Z,1008.49
2019-05-23T08:53:14.320Z,1008.51
2019-05-23T08:54:14.317Z,1008.50
2019-05-23T08:55:19.318Z,1008.51
2019-05-23T08:56:19.230Z,1008.47
2019-05-23T08:57:15.270Z,1008.44
2019-05-23T08:58:14.273Z,1008.48
2019-05-23T08:59:14.267Z,1008.43
2019-05-23T09:00:14.238Z,1008.44
2019-05-23T09:01:14.236Z,1008.45
2019-05-23T09:02:14.215Z,1008.46
2019-05-23T09:03:14.209Z,1008.44
2019-05-23T09:04:14.203Z,1008.46
2019-05-23T09:05:14.188Z,1008.49
2019-05-23T09:06:19.224Z,1008.47
2019-05-23T09:07:14.351Z,1008.47
2019-05-23T09:08:17.015Z,1008.52
2019-05-23T09:09:28.555Z,1008.47
2019-05-23T09:10:15.175Z,1008.52
2019-05-23T09:11:14.116Z,1008.48
2019-05-23T09:12:14.103Z,1008.44
2019-05-23T09:13:14.094Z,1008.35
2019-05-23T09:14:14.091Z,1008.46
2019-05-23T09:15:14.076Z,1008.44
2019-05-23T09:16:14.069Z,1008.39
2019-05-23T09:17:19.081Z,1008.42
2019-05-23T09:18:14.042Z,1008.36
2019-05-23T09:19:14.034Z,1008.37
2019-05-23T09:20:14.013Z,1008.32
2019-05-23T09:21:14.015Z,1008.39
2019-05-23T09:22:13.995Z,1008.39
2019-05-23T09:23:13.980Z,1008.38
2019-05-23T09:24:13.981Z,1008.35
2019-05-23T09:25:13.955Z,1008.39
2019-05-23T09:26:13.950Z,1008.30
2019-05-23T09:27:13.933Z,1008.32
2019-05-23T09:28:18.950Z,1008.34
2019-05-23T09:29:13.944Z,1008.35
2019-05-23T09:30:13.900Z,1008.32
2019-05-23T09:31:13.945Z,1008.32
2019-05-23T09:32:13.880Z,1008.36
2019-05-23T09:33:13.870Z,1008.28
2019-05-23T09:34:13.863Z,1008.30
2019-05-23T09:35:20.957Z,1008.35
2019-05-23T09:36:14.833Z,1008.31
2019-05-23T09:37:13.836Z,1008.41
2019-05-23T09:38:13.817Z,1008.46
2019-05-23T09:39:18.833Z,1008.43
2019-05-23T09:40:13.799Z,1008.47
2019-05-23T09:41:13.783Z,1008.50
2019-05-23T09:42:13.770Z,1008.55
2019-05-23T09:43:13.797Z,1008.53
2019-05-23T09:44:13.747Z,1008.59
2019-05-23T09:45:13.748Z,1008.41
2019-05-23T09:46:13.726Z,1008.42
2019-05-23T09:47:13.715Z,1008.32
2019-05-23T09:48:13.705Z,1008.28
2019-05-23T09:49:13.696Z,1008.32
2019-05-23T09:50:18.715Z,1008.29
2019-05-23T09:51:13.670Z,1008.30
2019-05-23T09:52:13.668Z,1008.31
2019-05-23T09:53:13.669Z,1008.36
2019-05-23T09:54:13.638Z,1008.34
2019-05-23T09:55:13.637Z,1008.21
2019-05-23T09:56:13.628Z,1008.21
2019-05-23T09:57:13.603Z,1008.37
2019-05-23T09:58:13.595Z,1008.43
2019-05-23T09:59:13.581Z,1008.39
2019-05-23T10:00:13.586Z,1008.38
2019-05-23T10:01:18.777Z,1008.35
2019-05-23T10:02:13.554Z,1008.16
2019-05-23T10:03:13.540Z,1008.14
2019-05-23T10:04:13.540Z,1008.13
2019-05-23T10:05:13.548Z,1008.16
2019-05-23T10:06:13.510Z,1008.15
2019-05-23T10:07:13.492Z,1008.14
2019-05-23T10:08:13.482Z,1008.13
2019-05-23T10:09:13.478Z,1008.09
2019-05-23T10:10:13.476Z,1008.12
2019-05-23T10:11:13.458Z,1008.04
2019-05-23T10:12:22.178Z,1008.14
2019-05-23T10:13:13.426Z,1008.06
2019-05-23T10:14:13.416Z,1008.05
2019-05-23T10:15:13.414Z,1008.06
2019-05-23T10:16:13.412Z,1008.08
2019-05-23T10:17:13.388Z,1008.04
2019-05-23T10:18:13.397Z,1008.04
2019-05-23T10:19:13.358Z,1007.95
2019-05-23T10:20:13.375Z,1007.94
2019-05-23T10:21:13.406Z,1007.97
2019-05-23T10:22:13.353Z,1007.99
2019-05-23T10:23:18.379Z,1008.01
2019-05-23T10:24:13.346Z,1007.98
2019-05-23T10:25:13.328Z,1007.97
2019-05-23T10:26:13.277Z,1007.92
2019-05-23T10:27:13.270Z,1007.87
2019-05-23T10:28:13.254Z,1008.00
2019-05-23T10:29:13.245Z,1007.95
2019-05-23T10:30:13.248Z,1007.99
2019-05-23T10:31:13.223Z,1008.03
2019-05-23T10:32:13.212Z,1007.98
2019-05-23T10:33:13.645Z,1008.02
2019-05-23T10:34:18.231Z,1008.07
2019-05-23T10:35:13.195Z,1008.01
2019-05-23T10:36:13.168Z,1008.02
2019-05-23T10:37:13.160Z,1007.96
2019-05-23T10:38:13.157Z,1007.89
2019-05-23T10:39:13.137Z,1007.92
2019-05-23T10:40:13.151Z,1007.95
2019-05-23T10:41:13.117Z,1007.94
2019-05-23T10:42:13.104Z,1007.94
2019-05-23T10:43:13.094Z,1007.97
2019-05-23T10:44:13.097Z,1008.06
2019-05-23T10:45:18.104Z,1008.15
2019-05-23T10:46:13.061Z,1008.04
2019-05-23T10:47:13.063Z,1007.90
2019-05-23T10:48:13.042Z,1007.97
2019-05-23T10:49:13.023Z,1007.91
2019-05-23T10:50:13.032Z,1007.88
2019-05-23T10:51:13.009Z,1007.84
2019-05-23T10:52:13.018Z,1007.91
2019-05-23T10:53:12.996Z,1007.80
2019-05-23T10:54:12.970Z,1007.78
2019-05-23T10:55:12.979Z,1007.84
2019-05-23T10:56:20.541Z,1007.85
2019-05-23T10:57:12.939Z,1007.84
2019-05-23T10:58:12.923Z,1007.80
2019-05-23T10:59:12.914Z,1007.74
2019-05-23T11:00:12.966Z,1007.73
2019-05-23T11:01:12.927Z,1007.69
2019-05-23T11:02:12.892Z,1007.61
2019-05-23T11:03:12.869Z,1007.68
2019-05-23T11:04:12.858Z,1007.60
2019-05-23T11:05:14.238Z,1007.60
2019-05-23T11:06:16.610Z,1007.59
2019-05-23T11:07:17.854Z,1007.66
2019-05-23T11:08:12.823Z,1007.66
2019-05-23T11:09:12.832Z,1007.62
2019-05-23T11:10:12.796Z,1007.64
2019-05-23T11:11:14.428Z,1007.67
2019-05-23T11:12:12.781Z,1007.74
2019-05-23T11:13:12.767Z,1007.57
2019-05-23T11:14:12.760Z,1007.55
2019-05-23T11:15:12.808Z,1007.57
2019-05-23T11:16:12.741Z,1007.57
2019-05-23T11:17:12.718Z,1007.57
2019-05-23T11:18:17.739Z,1007.57
2019-05-23T11:19:12.707Z,1007.50
2019-05-23T11:20:12.703Z,1007.55
2019-05-23T11:21:12.689Z,1007.51
2019-05-23T11:22:12.658Z,1007.84
2019-05-23T11:23:12.667Z,1007.77
2019-05-23T11:24:12.640Z,1007.81
2019-05-23T11:25:12.631Z,1007.83
2019-05-23T11:26:12.635Z,1007.87
2019-05-23T11:27:12.605Z,1007.78
2019-05-23T11:28:12.597Z,1007.82
2019-05-23T11:29:17.614Z,1007.79
2019-05-23T11:30:12.593Z,1007.83
2019-05-23T11:31:12.580Z,1007.78
2019-05-23T11:32:12.553Z,1007.65
2019-05-23T11:33:12.545Z,1007.47
2019-05-23T11:34:12.531Z,1007.41
2019-05-23T11:35:12.524Z,1007.41
2019-05-23T11:36:12.524Z,1007.41
2019-05-23T11:37:12.497Z,1007.57
2019-05-23T11:38:12.491Z,1007.43
2019-05-23T11:39:12.473Z,1007.37
2019-05-23T11:40:17.485Z,1007.45
2019-05-23T11:41:12.472Z,1007.37
2019-05-23T11:42:12.443Z,1007.33
2019-05-23T11:43:12.430Z,1007.39
2019-05-23T11:44:12.425Z,1007.36
2019-05-23T11:45:12.407Z,1007.35
2019-05-23T11:46:12.414Z,1007.30
2019-05-23T11:47:12.395Z,1007.27
2019-05-23T11:48:15.887Z,1007.30
2019-05-23T11:49:12.377Z,1007.29
2019-05-23T11:50:12.353Z,1007.26
2019-05-23T11:51:17.380Z,1007.43
2019-05-23T11:52:12.335Z,1007.22
2019-05-23T11:53:12.337Z,1007.19
2019-05-23T11:54:12.313Z,1007.29
2019-05-23T11:55:12.307Z,1007.20
2019-05-23T11:56:12.301Z,1007.27
2019-05-23T11:57:12.288Z,1007.28
2019-05-23T11:58:12.279Z,1007.19
2019-05-23T11:59:12.255Z,1007.18
2019-05-23T12:00:12.245Z,1007.16
2019-05-23T12:01:19.898Z,1007.22
2019-05-23T12:02:18.241Z,1007.19
2019-05-23T12:03:12.221Z,1007.19
2019-05-23T12:04:12.384Z,1007.28
2019-05-23T12:05:12.193Z,1007.28